Riverton, WY (82501)

10:56 AM MST on February 24, 2017 (GMT -0700)
Logan Park | | Change Station
Active Advisory: Winter Storm Warning

Elev 4984 ft 43.04 °N, 108.39 °W | Updated 3 seconds ago

Overcast
Overcast
23.0 °F
Feels Like 23 °F
N
0.0
Wind Variable Wind from ESE
Gusts 6.0 mph

Today
High -- | Low -- °F
--% Chance of Precip.
Yesterday
High -- | Low -- °F
Precip. -- in
Pressure 30.09 in
Visibility 10.0 miles
Clouds Scattered Clouds 2600 ft
Overcast 8000 ft
Windchill 23 °F
Dew Point 18 °F
Humidity 84%
Rainfall 0.00 in
Snow Depth Not available.
6:56 AM 5:56 PM
Waning Crescent, 4% visible
METAR KRIW 241753Z AUTO 00000KT 10SM SCT026 OVC080 M07/M09 A2994 RMK AO2 SLP188 60000 T10671094 11067 21094 51004
Pressure 30.09 in
Visibility 10.0 miles
Clouds Scattered Clouds 2600 ft
Overcast 8000 ft
Windchill 23 °F
Dew Point 18 °F
Humidity 84%
Rainfall 0.00 in
Snow Depth Not available.
6:56 AM 5:56 PM
Waning Crescent, 4% visible
METAR KRIW 241753Z AUTO 00000KT 10SM SCT026 OVC080 M07/M09 A2994 RMK AO2 SLP188 60000 T10671094 11067 21094 51004

Get Your Daily Forecast Email!

Thanks for signing up!

Be on the lookout for a verification email in your inbox.

You'll start receiving the daily forecast at 8 AM.

×

10-Day Weather Forecast

Almanac

Astronomy

Feb. 24, 2017 Rise Set
Actual Time
Civil Twilight
Nautical Twilight
Astronomical Twilight
Moon
Length of Visible Light
Length of Day
Tomorrow will be .
, % of the Moon is Illuminated

Today's Extremes

State Highs State Lows

Community

WunderPhotos

Upload Photos

1,962,540 photos uploaded!

WunderBlog® & News

Nearby

Air Quality

  Air Quality AQ Index Pollutant
Not available.

Snow Depth

Station Depth Elevation

Earthquake Activity

City Distance Mag. Time & Date
Minimum magnitude displayed is 2.5.

Coastal Water Temperatures

Place Temperature

Stations

Nearby Weather Stations

Station Location Temp. Windchill Dew Point Humidity Wind Precip. Elev Updated Type
                   

Watches & Warnings

Winter Storm Warning
Issued: 10:51 AM MST Feb. 24, 2017 – National Weather Service

... Winter Storm Warning will expire at 11 am MST this morning...

The winter storm that brought heavy snow and strong winds to the
region is moving away... leaving only areas of light snow or
flurries around with little or no new accumulation expected.
Therefore the Winter Storm Warning will be allowed to expire.